Time;durP1;ratioP1;P1;durP2;ratioP2;P2;SDS_P1;SDS_P2;PMS_P1;PMS_P2;Temp;Humidity;BMP_temperature;BMP_pressure;BME280_temperature;BME280_humidity;BME280_pressure;Samples;Min_cycle;Max_cycle;Signal;HPM_P1;HPM_P2
2021/03/28 00:01:07;;;;;;;71.95;32.78;;;;;;;6.71;61.84;100708.28;5031564;28;20125;-37
2021/03/28 00:04:09;;;;;;;61.00;30.83;;;;;;;6.29;63.84;100704.47;5030536;28;20053;-38
2021/03/28 00:06:44;;;;;;;86.18;44.45;;;;;;;6.21;63.01;100709.69;4988519;28;20049;-37
2021/03/28 00:09:27;;;;;;;140.88;68.10;;;;;;;6.16;63.59;100711.97;5030360;28;20104;-37
2021/03/28 00:12:13;;;;;;;116.10;56.15;;;;;;;5.78;64.56;100717.31;5029979;28;20021;-38
2021/03/28 00:14:47;;;;;;;61.53;29.00;;;;;;;5.78;64.66;100716.50;5030401;28;20021;-38
2021/03/28 00:17:19;;;;;;;57.20;28.35;;;;;;;5.81;64.08;100722.31;5014285;28;20032;-38
2021/03/28 00:19:54;;;;;;;50.50;26.73;;;;;;;6.01;63.67;100719.56;5031600;28;20025;-38
2021/03/28 00:22:41;;;;;;;54.15;27.05;;;;;;;6.75;61.37;100718.38;5037635;28;20013;-37
2021/03/28 00:25:15;;;;;;;47.03;23.90;;;;;;;6.33;62.16;100710.28;5049695;28;20032;-36
2021/03/28 00:27:52;;;;;;;44.22;23.17;;;;;;;6.13;62.57;100713.09;5049748;28;20025;-37
2021/03/28 00:30:22;;;;;;;139.88;62.58;;;;;;;6.01;66.05;100723.03;5050104;28;20031;-37
2021/03/28 00:32:53;;;;;;;60.50;29.63;;;;;;;5.92;63.59;100717.78;5049599;28;20025;-37
2021/03/28 00:35:21;;;;;;;41.78;22.27;;;;;;;5.76;62.67;100723.75;5049572;28;20036;-37
2021/03/28 00:37:59;;;;;;;46.00;21.02;;;;;;;5.82;62.59;100725.78;5049316;28;20025;-37
2021/03/28 00:40:25;;;;;;;40.80;19.42;;;;;;;6.20;61.15;100715.94;5050626;28;20025;-38
2021/03/28 00:42:51;;;;;;;37.03;18.75;;;;;;;6.67;58.79;100712.22;5050554;28;20401;-50
2021/03/28 00:45:23;;;;;;;33.13;18.30;;;;;;;6.40;59.25;100717.47;5049050;28;20048;-52
2021/03/28 00:48:11;;;;;;;34.20;17.90;;;;;;;6.18;59.47;100715.28;5050190;28;20028;-50
2021/03/28 00:50:50;;;;;;;173.02;71.78;;;;;;;6.03;60.26;100713.16;5050408;28;20051;-50
2021/03/28 00:53:52;;;;;;;53.58;27.30;;;;;;;5.70;61.77;100727.81;5049002;28;20021;-50
2021/03/28 00:56:25;;;;;;;39.50;20.45;;;;;;;5.85;61.30;100720.22;5007888;28;20048;-53
2021/03/28 00:59:02;;;;;;;39.05;18.58;;;;;;;5.82;61.12;100720.50;5049263;28;20465;-47
2021/03/28 01:01:30;;;;;;;40.35;19.95;;;;;;;6.68;58.42;100713.88;5032772;28;20021;-49
2021/03/28 01:04:01;;;;;;;43.83;20.67;;;;;;;6.24;59.64;100719.94;5049496;28;20445;-37
2021/03/28 01:06:43;;;;;;;38.25;20.13;;;;;;;6.02;60.42;100722.06;5038540;28;20068;-37
2021/03/28 01:09:14;;;;;;;40.53;20.33;;;;;;;6.01;60.53;100725.69;5030549;28;20030;-37
2021/03/28 01:12:05;;;;;;;39.55;19.92;;;;;;;5.73;60.95;100729.31;5030392;28;20087;-37
2021/03/28 01:14:50;;;;;;;35.63;18.05;;;;;;;5.51;61.38;100717.34;5029384;28;20021;-37
2021/03/28 01:17:15;;;;;;;34.10;17.92;;;;;;;5.44;61.48;100720.53;5012743;28;20094;-37
2021/03/28 01:19:59;;;;;;;35.30;19.45;;;;;;;5.33;62.73;100720.75;5030395;28;20409;-37
2021/03/28 01:22:33;;;;;;;37.38;19.42;;;;;;;6.30;59.99;100713.22;5046546;28;20346;-37
2021/03/28 01:25:17;;;;;;;39.92;20.00;;;;;;;6.21;60.15;100717.63;5050232;28;20096;-37
2021/03/28 01:27:49;;;;;;;43.08;21.50;;;;;;;5.47;61.64;100682.47;5050233;28;20083;-38
2021/03/28 01:30:17;;;;;;;40.00;20.73;;;;;;;5.67;61.80;100714.88;5048994;28;20039;-37
2021/03/28 01:32:43;;;;;;;41.60;19.65;;;;;;;5.54;61.94;100719.69;5050006;28;20021;-38
2021/03/28 01:35:14;;;;;;;40.30;20.42;;;;;;;5.47;61.97;100715.00;5048282;28;20029;-37
2021/03/28 01:38:04;;;;;;;38.50;20.45;;;;;;;5.45;61.79;100706.38;5049557;28;20080;-38
2021/03/28 01:40:45;;;;;;;53.75;28.08;;;;;;;5.35;63.31;100715.31;5032158;28;20044;-37
2021/03/28 01:43:20;;;;;;;111.18;52.45;;;;;;;6.15;61.20;100712.91;5048307;28;20028;-37
2021/03/28 01:45:57;;;;;;;56.47;27.10;;;;;;;6.06;61.44;100712.03;5049563;28;20109;-38
2021/03/28 01:48:29;;;;;;;41.88;21.17;;;;;;;5.72;61.63;100717.09;5049806;28;20111;-38
2021/03/28 01:50:57;;;;;;;42.08;19.88;;;;;;;5.27;62.29;100716.91;5049560;28;20029;-38
2021/03/28 01:53:29;;;;;;;41.47;20.15;;;;;;;5.14;63.66;100726.09;5049443;28;20025;-38
2021/03/28 01:55:59;;;;;;;38.83;20.20;;;;;;;5.16;63.27;100722.34;5032248;28;20049;-37
2021/03/28 01:58:42;;;;;;;40.15;20.00;;;;;;;4.96;63.83;100707.56;5032188;28;20028;-37
2021/03/28 02:01:19;;;;;;;44.05;20.48;;;;;;;4.97;65.48;100715.34;5031890;28;20029;-38
2021/03/28 02:04:22;;;;;;;65.93;33.38;;;;;;;5.24;65.06;100721.63;5048479;28;20033;-37
2021/03/28 02:07:21;;;;;;;55.80;30.27;;;;;;;6.21;60.99;100712.34;5049944;28;20469;-38
2021/03/28 02:09:50;;;;;;;40.33;20.05;;;;;;;6.04;60.03;100711.34;5050093;28;20029;-38
2021/03/28 02:12:34;;;;;;;41.38;21.27;;;;;;;5.58;61.80;100710.47;5048840;28;20051;-38
2021/03/28 02:15:12;;;;;;;38.42;20.27;;;;;;;5.13;62.76;100706.78;5050223;28;20037;-38
2021/03/28 02:18:00;;;;;;;38.38;18.95;;;;;;;5.00;62.80;100707.13;5050185;28;20052;-37
2021/03/28 02:20:32;;;;;;;37.63;19.15;;;;;;;4.82;63.18;100711.47;5013763;28;20033;-37
2021/03/28 02:23:07;;;;;;;33.60;18.52;;;;;;;4.80;63.63;100708.97;5048515;28;20032;-38
2021/03/28 02:25:47;;;;;;;34.20;18.90;;;;;;;5.04;62.46;100720.84;5032941;28;20040;-50
2021/03/28 02:28:33;;;;;;;34.20;18.30;;;;;;;4.93;63.09;100708.69;5049547;28;20036;-49
2021/03/28 02:31:02;;;;;;;34.97;18.73;;;;;;;4.82;63.15;100709.66;5031342;28;20030;-48
2021/03/28 02:33:43;;;;;;;37.10;19.30;;;;;;;4.68;64.24;100715.38;5029735;28;20065;-50
2021/03/28 02:36:36;;;;;;;37.22;19.02;;;;;;;4.77;63.24;100716.34;5017453;28;20173;-49
2021/03/28 02:39:22;;;;;;;34.75;17.90;;;;;;;4.69;63.52;100720.50;5033715;28;20098;-51
2021/03/28 02:42:02;;;;;;;30.67;17.00;;;;;;;4.85;63.05;100716.47;5032826;28;20097;-49
2021/03/28 02:44:46;;;;;;;;;;;;;;;4.76;63.12;100718.16;5034401;28;20049;-50
2021/03/28 02:47:38;;;;;;;51.38;26.80;;;;;;;4.71;63.45;100694.00;5033867;28;19948;-52
2021/03/28 02:50:15;;;;;;;36.30;18.77;;;;;;;4.65;62.84;100713.88;5034035;28;20169;-52
2021/03/28 02:52:58;;;;;;;29.73;15.95;;;;;;;4.95;62.05;100726.97;5033967;28;20394;-52
2021/03/28 02:55:45;;;;;;;32.33;18.10;;;;;;;4.77;62.68;100733.00;5032587;28;20219;-52
2021/03/28 02:58:16;;;;;;;36.03;16.80;;;;;;;4.99;61.99;100720.44;5033907;28;20116;-49
2021/03/28 03:00:55;;;;;;;29.95;15.93;;;;;;;4.93;62.54;100715.75;5033723;28;20030;-50
2021/03/28 03:03:30;;;;;;;29.58;15.43;;;;;;;4.86;62.25;100715.50;5016593;28;20092;-51
2021/03/28 03:06:32;;;;;;;29.30;15.32;;;;;;;5.07;61.28;100718.75;5032161;28;20129;-49
2021/03/28 03:09:09;;;;;;;27.88;15.82;;;;;;;5.73;59.55;100722.22;5032284;28;20116;-51
2021/03/28 03:11:50;;;;;;;29.55;15.13;;;;;;;5.80;59.10;100720.63;5033493;28;20030;-50
2021/03/28 03:14:30;;;;;;;27.42;13.95;;;;;;;5.48;60.18;100714.03;5033396;28;20037;-52
2021/03/28 03:17:17;;;;;;;25.42;14.00;;;;;;;5.35;60.18;100718.81;5032107;28;20036;-51
2021/03/28 03:19:54;;;;;;;27.27;15.23;;;;;;;5.07;61.45;100721.41;5033553;28;20032;-50
2021/03/28 03:22:40;;;;;;;26.52;14.93;;;;;;;4.90;61.62;100730.06;5041047;28;20017;-52
2021/03/28 03:26:00;;;;;;;24.95;14.32;;;;;;;5.03;61.70;100730.56;5053307;28;20481;-51
2021/03/28 03:28:44;;;;;;;29.95;15.32;;;;;;;5.13;61.46;100729.72;4991503;28;20030;-50
2021/03/28 03:31:23;;;;;;;33.30;15.13;;;;;;;4.91;62.01;100731.69;5045199;28;20484;-50
2021/03/28 03:34:10;;;;;;;32.67;16.15;;;;;;;4.60;63.25;100731.91;5053270;28;20331;-48
2021/03/28 03:37:09;;;;;;;36.53;17.85;;;;;;;4.56;63.30;100746.34;5051604;28;20413;-49
2021/03/28 03:39:59;;;;;;;29.23;15.80;;;;;;;4.45;63.38;100749.13;5052874;28;20037;-48
2021/03/28 03:42:30;;;;;;;30.75;15.43;;;;;;;4.60;62.88;100736.34;5052949;28;20483;-49
2021/03/28 03:45:29;;;;;;;27.52;14.50;;;;;;;4.59;63.17;100732.88;5052263;28;20119;-50
2021/03/28 03:48:10;;;;;;;32.88;16.13;;;;;;;4.50;62.73;100734.56;5052768;28;20037;-48
2021/03/28 03:51:12;;;;;;;35.00;16.23;;;;;;;4.39;63.80;100739.13;5052764;28;20029;-49
2021/03/28 03:54:04;;;;;;;37.08;16.85;;;;;;;4.25;64.65;100745.66;5051113;28;20171;-50
2021/03/28 03:56:44;;;;;;;31.60;16.80;;;;;;;4.41;64.60;100753.00;5051375;28;20098;-49
2021/03/28 03:59:13;;;;;;;28.88;14.88;;;;;;;4.45;63.92;100741.22;5050937;28;20033;-48
2021/03/28 04:01:45;;;;;;;30.90;15.25;;;;;;;4.29;64.06;100752.31;5036705;28;20480;-48
2021/03/28 04:04:21;;;;;;;31.60;16.77;;;;;;;4.24;65.12;100746.63;5035470;28;20112;-47
2021/03/28 04:06:49;;;;;;;32.90;15.00;;;;;;;4.26;64.21;100758.69;5031944;28;20561;-48
2021/03/28 04:09:33;;;;;;;27.38;14.85;;;;;;;4.27;63.31;100757.72;5032653;28;20094;-48
2021/03/28 04:12:28;;;;;;;30.45;14.15;;;;;;;4.08;64.04;100755.06;5032557;28;20033;-50
2021/03/28 04:15:06;;;;;;;27.20;14.27;;;;;;;4.10;64.02;100768.94;5030484;28;20094;-49
2021/03/28 04:17:53;;;;;;;30.38;14.57;;;;;;;4.23;64.23;100763.41;5031224;28;20397;-49
2021/03/28 04:20:37;;;;;;;26.75;14.55;;;;;;;4.08;64.24;100757.69;5032398;28;20100;-49
2021/03/28 04:23:18;;;;;;;28.48;15.23;;;;;;;4.42;64.01;100752.06;5044934;28;20131;-48
2021/03/28 04:25:53;;;;;;;34.25;15.50;;;;;;;5.30;61.49;100771.19;5050996;28;20028;-50
2021/03/28 04:28:35;;;;;;;37.47;16.95;;;;;;;4.99;61.66;100765.28;5050455;28;20086;-52
2021/03/28 04:31:25;;;;;;;31.75;15.23;;;;;;;4.94;62.51;100764.91;5050634;28;20029;-49
2021/03/28 04:33:58;;;;;;;35.08;16.30;;;;;;;5.00;62.64;100769.59;5052138;28;20513;-49
2021/03/28 04:36:36;;;;;;;34.17;15.52;;;;;;;5.09;62.33;100781.94;5050515;28;20483;-50
2021/03/28 04:39:13;;;;;;;35.97;16.75;;;;;;;6.12;59.86;100772.22;5051946;28;20033;-49
2021/03/28 04:42:00;;;;;;;36.83;16.27;;;;;;;6.05;59.18;100774.63;5050399;28;20191;-49
2021/03/28 04:45:00;;;;;;;34.85;18.73;;;;;;;5.98;59.62;100780.66;5051625;28;20060;-49
2021/03/28 04:47:26;;;;;;;107.93;39.45;;;;;;;6.18;59.55;100776.06;5043413;28;20176;-50
2021/03/28 04:50:03;;;;;;;48.28;23.10;;;;;;;6.33;59.17;100785.13;5043510;28;20472;-50
2021/03/28 04:53:06;;;;;;;41.92;19.60;;;;;;;6.41;59.10;100787.84;5030294;28;20355;-50
2021/03/28 04:55:52;;;;;;;37.75;16.33;;;;;;;6.72;57.83;100778.69;5031361;28;20026;-50
2021/03/28 04:58:44;;;;;;;34.67;15.63;;;;;;;6.58;57.83;100788.84;5030288;28;20044;-48
2021/03/28 05:01:21;;;;;;;;;;;;;;;7.89;55.19;100791.47;5008250;28;20057;-48
2021/03/28 05:04:19;;;;;;;27.52;13.35;;;;;;;7.78;53.85;100789.94;5031044;28;19909;-48
2021/03/28 05:07:11;;;;;;;28.00;14.02;;;;;;;7.52;55.34;100799.75;5006147;28;20053;-48
2021/03/28 05:09:51;;;;;;;21.05;12.55;;;;;;;7.82;54.00;100793.09;5029030;28;20531;-49
2021/03/28 05:12:51;;;;;;;22.88;12.65;;;;;;;8.19;52.75;100795.38;5029340;28;20021;-48
2021/03/28 05:15:41;;;;;;;29.15;14.13;;;;;;;8.55;51.60;100795.13;5030649;28;20026;-48
2021/03/28 05:18:30;;;;;;;36.88;17.42;;;;;;;8.74;50.80;100795.81;5029577;28;20104;-48
2021/03/28 05:21:01;;;;;;;33.33;15.60;;;;;;;8.80;51.09;100800.47;5002063;28;20045;-50
2021/03/28 05:23:45;;;;;;;28.48;14.48;;;;;;;8.99;50.09;100797.47;5047881;28;20510;-50
2021/03/28 05:26:35;;;;;;;26.58;13.95;;;;;;;9.05;50.30;100803.09;5050451;28;20025;-50
2021/03/28 05:29:21;;;;;;;24.73;13.65;;;;;;;9.33;49.41;100801.72;5050589;28;20029;-49
2021/03/28 05:32:08;;;;;;;24.13;13.07;;;;;;;9.55;49.00;100810.78;5049916;28;20468;-52
2021/03/28 05:35:38;;;;;;;22.02;11.98;;;;;;;9.84;48.74;100809.34;5050179;28;20218;-52
2021/03/28 05:38:22;;;;;;;23.50;12.80;;;;;;;10.41;48.00;100802.94;4966697;28;20117;-49
2021/03/28 05:41:02;;;;;;;20.33;12.15;;;;;;;10.31;47.41;100802.34;4988695;28;20042;-52
2021/03/28 05:43:49;;;;;;;19.40;11.82;;;;;;;11.16;46.52;100806.69;5031913;28;20048;-47
2021/03/28 05:46:24;;;;;;;20.92;11.35;;;;;;;11.60;44.46;100805.06;5050440;28;20033;-48
2021/03/28 05:48:59;;;;;;;19.25;10.98;;;;;;;11.63;43.57;100807.34;5049160;28;20029;-48
2021/03/28 05:51:29;;;;;;;16.48;10.50;;;;;;;11.74;43.33;100812.22;5041432;28;20490;-49
2021/03/28 05:54:13;;;;;;;17.23;11.13;;;;;;;11.80;42.59;100805.31;5034490;28;20037;-47
2021/03/28 05:56:57;;;;;;;17.55;10.43;;;;;;;12.07;42.96;100807.34;5036670;28;20033;-37
2021/03/28 05:59:52;;;;;;;17.17;10.38;;;;;;;13.13;41.31;100809.34;5041229;28;20033;-37
2021/03/28 06:02:20;;;;;;;16.13;10.20;;;;;;;13.38;40.71;100815.13;5035353;28;20033;-37
2021/03/28 06:04:49;;;;;;;15.90;9.32;;;;;;;13.34;40.46;100815.72;5038794;28;20029;-40
2021/03/28 06:07:51;;;;;;;15.88;10.50;;;;;;;13.19;40.23;100810.44;5041408;28;20061;-48
2021/03/28 06:10:31;;;;;;;16.83;10.50;;;;;;;13.29;40.72;100810.94;5039631;28;20053;-50
2021/03/28 06:13:15;;;;;;;19.42;10.48;;;;;;;13.64;40.11;100819.81;5038455;28;20087;-48
2021/03/28 06:15:46;;;;;;;17.38;9.95;;;;;;;13.95;38.98;100823.84;5035328;28;20033;-49
2021/03/28 06:18:15;;;;;;;15.18;10.02;;;;;;;14.09;39.17;100819.41;5037987;28;20461;-47
2021/03/28 06:20:46;;;;;;;17.02;10.25;;;;;;;14.60;38.65;100823.47;5035508;28;20029;-38
2021/03/28 06:23:42;;;;;;;17.38;10.25;;;;;;;15.19;36.29;100824.53;5045296;28;20051;-38
2021/03/28 06:26:32;;;;;;;18.38;10.65;;;;;;;14.96;37.07;100825.75;5041350;28;20029;-37
2021/03/28 06:29:27;;;;;;;16.00;10.80;;;;;;;14.83;37.34;100825.75;5040714;28;20496;-38
2021/03/28 06:32:08;;;;;;;23.52;12.63;;;;;;;14.96;37.06;100825.75;5037646;28;20404;-37
2021/03/28 06:35:00;;;;;;;17.33;10.75;;;;;;;15.17;36.93;100821.22;5036992;28;20025;-37
2021/03/28 06:37:38;;;;;;;20.30;12.13;;;;;;;14.94;37.50;100817.09;5031577;28;20048;-37
2021/03/28 06:40:41;;;;;;;16.52;11.00;;;;;;;15.25;36.79;100818.34;5039555;28;20113;-37
2021/03/28 06:43:28;;;;;;;17.63;11.25;;;;;;;16.66;34.91;100821.31;5036276;28;20056;-37
2021/03/28 06:46:19;;;;;;;19.13;11.32;;;;;;;16.32;34.53;100818.03;5040481;28;20094;-38
2021/03/28 06:49:18;;;;;;;19.00;11.65;;;;;;;15.87;35.33;100818.03;5041427;28;20081;-38
2021/03/28 06:52:00;;;;;;;23.15;11.85;;;;;;;16.01;35.12;100814.22;5027198;28;20037;-37
2021/03/28 06:54:56;;;;;;;18.70;11.05;;;;;;;16.36;34.39;100814.69;5024301;28;20411;-38
2021/03/28 06:57:59;;;;;;;18.13;11.05;;;;;;;16.66;34.02;100814.09;5044678;28;20461;-37
2021/03/28 07:01:22;;;;;;;16.48;11.50;;;;;;;16.59;34.35;100810.63;5046256;28;20033;-37
2021/03/28 07:04:36;;;;;;;17.70;11.65;;;;;;;16.76;34.65;100811.72;4984962;28;20037;-37
2021/03/28 07:07:13;;;;;;;20.35;11.20;;;;;;;16.64;34.22;100808.13;4975801;28;20066;-38
2021/03/28 07:09:44;;;;;;;18.63;11.32;;;;;;;16.65;33.42;100809.75;5028137;28;20048;-49
2021/03/28 07:12:37;;;;;;;20.95;11.45;;;;;;;16.79;34.30;100810.47;5029607;28;20026;-49
2021/03/28 07:15:14;;;;;;;38.45;25.98;;;;;;;16.94;33.77;100807.47;5031153;28;20406;-48
2021/03/28 07:17:58;;;;;;;20.50;12.73;;;;;;;16.93;34.60;100811.22;5036105;28;20033;-49
2021/03/28 07:20:35;;;;;;;19.23;12.10;;;;;;;16.90;33.49;100795.53;5038688;28;20465;-38
2021/03/28 07:23:23;;;;;;;19.75;12.45;;;;;;;17.02;34.01;100809.06;5052855;28;20131;-38
2021/03/28 07:26:15;;;;;;;22.38;12.30;;;;;;;17.26;34.48;100796.66;5051513;28;20453;-38
2021/03/28 07:28:52;;;;;;;18.77;12.00;;;;;;;17.75;33.73;100797.56;5048656;28;20044;-39
2021/03/28 07:31:30;;;;;;;22.23;12.27;;;;;;;17.99;33.15;100803.94;5052555;28;20036;-39
2021/03/28 07:33:58;;;;;;;21.15;12.45;;;;;;;18.15;32.54;100806.00;5047934;28;20428;-39
2021/03/28 07:36:45;;;;;;;16.70;11.93;;;;;;;18.10;32.82;100800.47;5037604;28;20130;-38
2021/03/28 07:40:03;;;;;;;37.53;24.48;;;;;;;17.99;32.40;100798.53;5032787;28;20075;-38
2021/03/28 07:42:37;;;;;;;29.83;20.23;;;;;;;18.34;32.71;100804.09;4989398;28;20089;-37
2021/03/28 07:45:30;;;;;;;19.77;11.93;;;;;;;18.42;32.16;100796.72;5052664;28;20032;-38
2021/03/28 07:48:31;;;;;;;21.05;12.32;;;;;;;18.47;32.39;100791.50;5052257;28;20028;-38
2021/03/28 07:51:13;;;;;;;17.52;11.85;;;;;;;18.30;32.14;100802.91;5036555;28;20035;-38
2021/03/28 07:53:48;;;;;;;20.70;12.25;;;;;;;18.66;31.73;100800.31;5050298;28;20033;-38
2021/03/28 07:56:40;;;;;;;29.83;18.10;;;;;;;18.84;31.96;100802.94;5041781;28;20486;-38
2021/03/28 07:59:19;;;;;;;27.90;16.15;;;;;;;19.07;31.70;100795.94;5047545;28;20029;-38
2021/03/28 08:02:05;;;;;;;19.20;12.43;;;;;;;19.28;30.70;100798.03;5017426;28;20083;-38
2021/03/28 08:04:34;;;;;;;20.27;11.90;;;;;;;19.13;31.45;100790.44;5036640;28;20404;-38
2021/03/28 08:07:04;;;;;;;19.02;11.88;;;;;;;19.69;31.18;100782.72;5038550;28;20093;-38
2021/03/28 08:09:57;;;;;;;19.73;11.65;;;;;;;20.11;30.63;100781.69;5050682;28;20461;-39
2021/03/28 08:12:59;;;;;;;17.90;11.55;;;;;;;20.17;29.92;100785.31;5052056;28;20388;-38
2021/03/28 08:15:50;;;;;;;19.30;10.88;;;;;;;19.71;30.89;100777.91;5052120;28;20033;-38
2021/03/28 08:18:21;;;;;;;;;;;;;;;19.95;30.59;100777.84;5050750;28;20038;-39
2021/03/28 08:20:55;;;;;;;18.23;10.63;;;;;;;20.30;30.51;100777.72;5047809;28;20269;-38
2021/03/28 08:24:11;;;;;;;20.05;11.68;;;;;;;20.28;29.89;100773.63;5050425;28;20075;-38
2021/03/28 08:26:43;;;;;;;20.85;10.45;;;;;;;20.77;29.41;100782.06;5018023;28;20041;-38
2021/03/28 08:29:17;;;;;;;20.58;13.02;;;;;;;20.74;30.04;100777.13;5046144;28;20029;-37
2021/03/28 08:32:03;;;;;;;17.85;10.32;;;;;;;20.84;30.02;100781.88;5031821;28;20108;-39
2021/03/28 08:34:53;;;;;;;15.15;9.10;;;;;;;21.14;29.87;100783.41;5042962;28;20035;-38
2021/03/28 08:37:43;;;;;;;18.20;9.65;;;;;;;21.55;29.52;100784.00;5051610;28;20040;-38
2021/03/28 08:40:30;;;;;;;17.05;9.98;;;;;;;22.47;28.29;100776.91;5050103;28;20103;-38
2021/03/28 08:43:14;;;;;;;13.98;7.45;;;;;;;22.39;28.04;100771.94;5051449;28;20032;-38
2021/03/28 08:46:17;;;;;;;11.90;7.85;;;;;;;22.22;27.63;100767.44;5042115;28;20029;-38
2021/03/28 08:49:21;;;;;;;11.70;7.25;;;;;;;22.15;27.78;100772.22;5030756;28;20120;-38
2021/03/28 08:52:17;;;;;;;12.73;7.45;;;;;;;22.08;28.28;100765.38;5029983;28;20077;-38
2021/03/28 08:55:04;;;;;;;13.20;7.72;;;;;;;22.43;27.68;100767.66;5031129;28;20040;-38
2021/03/28 08:58:01;;;;;;;11.15;5.93;;;;;;;22.10;27.18;100761.31;5031089;28;20197;-39
2021/03/28 09:00:34;;;;;;;6.95;5.50;;;;;;;22.14;27.42;100756.22;5029878;28;20029;-38
2021/03/28 09:03:11;;;;;;;13.32;7.80;;;;;;;22.22;26.13;100753.06;5031355;28;20083;-39
2021/03/28 09:05:53;;;;;;;7.70;5.68;;;;;;;21.97;26.03;100751.72;5031651;28;20040;-38
2021/03/28 09:08:32;;;;;;;7.00;5.55;;;;;;;21.99;26.12;100752.28;5030313;28;20079;-38
2021/03/28 09:11:26;;;;;;;7.40;5.53;;;;;;;23.04;25.31;100745.63;5030092;28;20017;-37
2021/03/28 09:14:37;;;;;;;8.45;5.55;;;;;;;23.06;25.54;100758.94;5031075;28;20030;-38
2021/03/28 09:17:35;;;;;;;9.00;5.93;;;;;;;22.37;25.35;100749.69;5022689;28;20045;-49
2021/03/28 09:20:33;;;;;;;12.38;6.18;;;;;;;22.20;25.90;100747.88;5026209;28;20089;-50
2021/03/28 09:23:14;;;;;;;9.68;6.07;;;;;;;22.45;25.65;100743.81;5043239;28;20485;-51
2021/03/28 09:25:55;;;;;;;13.38;6.20;;;;;;;22.55;25.59;100746.59;5046229;28;20122;-51
2021/03/28 09:28:29;;;;;;;;;;;;;;;22.61;25.86;100745.53;5048097;28;20021;-48
2021/03/28 09:30:59;;;;;;;13.80;5.57;;;;;;;21.73;26.74;100734.94;5050039;28;19974;-50
2021/03/28 09:33:54;;;;;;;11.00;5.55;;;;;;;21.41;26.93;100735.59;5048615;28;20037;-48
2021/03/28 09:36:27;;;;;;;10.07;6.20;;;;;;;21.61;26.70;100731.53;5049083;28;20033;-49
2021/03/28 09:39:23;;;;;;;9.15;5.85;;;;;;;22.20;26.26;100734.34;5049080;28;20496;-50
2021/03/28 09:42:25;;;;;;;12.35;8.02;;;;;;;22.20;26.55;100726.22;5050160;28;20017;-48
2021/03/28 09:44:53;;;;;;;11.27;6.60;;;;;;;22.24;26.13;100731.94;5049864;28;20086;-51
2021/03/28 09:47:56;;;;;;;10.90;6.18;;;;;;;21.81;26.73;100718.22;5050199;28;20025;-51
2021/03/28 09:50:30;;;;;;;8.02;6.22;;;;;;;22.09;26.90;100729.09;5049658;28;20017;-50
2021/03/28 09:53:25;;;;;;;8.50;5.82;;;;;;;22.02;26.83;100719.25;5032645;28;20032;-47
2021/03/28 09:56:13;;;;;;;8.38;5.93;;;;;;;22.14;27.09;100712.84;5045524;28;20505;-51
2021/03/28 09:59:22;;;;;;;10.15;6.32;;;;;;;22.90;25.91;100719.97;5038001;28;20029;-48
2021/03/28 10:02:24;;;;;;;9.00;6.28;;;;;;;22.65;26.18;100708.69;5038937;28;20480;-51
2021/03/28 10:05:25;;;;;;;9.23;6.07;;;;;;;22.47;27.04;100717.25;5039782;28;20070;-48
2021/03/28 10:08:06;;;;;;;9.18;6.15;;;;;;;22.58;26.34;100702.69;5034263;28;20045;-51
2021/03/28 10:10:44;;;;;;;11.73;6.60;;;;;;;22.73;26.25;100701.97;5036180;28;20025;-48
2021/03/28 10:13:26;;;;;;;9.65;6.97;;;;;;;22.63;26.50;100700.00;5039958;28;20049;-48
2021/03/28 10:16:00;;;;;;;8.13;5.97;;;;;;;22.29;26.67;100707.59;5021895;28;20029;-49
2021/03/28 10:18:28;;;;;;;8.73;6.40;;;;;;;22.54;26.16;100698.03;5028467;28;20036;-49
2021/03/28 10:21:08;;;;;;;8.77;5.93;;;;;;;22.72;25.76;100692.19;5030107;28;20036;-51
2021/03/28 10:24:07;;;;;;;12.13;5.93;;;;;;;22.43;25.56;100695.25;5046545;28;20025;-51
2021/03/28 10:26:39;;;;;;;8.40;5.43;;;;;;;22.87;25.79;100690.66;5048902;28;20044;-51
2021/03/28 10:29:33;;;;;;;8.10;5.70;;;;;;;23.05;24.84;100676.66;5049294;28;20032;-51
2021/03/28 10:32:25;;;;;;;7.53;5.47;;;;;;;23.67;24.11;100683.16;5051995;28;20353;-51
2021/03/28 10:35:02;;;;;;;8.82;5.30;;;;;;;24.06;24.12;100671.81;5048013;28;20570;-48
2021/03/28 10:37:49;;;;;;;9.07;5.65;;;;;;;23.86;24.84;100674.53;5026708;28;20072;-50
2021/03/28 10:40:27;;;;;;;9.85;6.05;;;;;;;23.73;25.30;100673.91;5038830;28;20028;-46
2021/03/28 10:43:12;;;;;;;9.50;6.55;;;;;;;23.05;25.65;100668.53;5045216;28;20496;-49
2021/03/28 10:46:08;;;;;;;8.55;5.88;;;;;;;23.18;25.40;100669.94;5049385;28;20052;-48
2021/03/28 10:48:36;;;;;;;8.05;5.82;;;;;;;23.00;25.86;100663.88;5034710;28;20150;-48
2021/03/28 10:51:26;;;;;;;9.02;5.97;;;;;;;23.26;25.29;100658.56;5048997;28;20049;-50
2021/03/28 10:54:10;;;;;;;9.77;6.10;;;;;;;23.53;24.74;100663.00;5047984;28;20085;-50
2021/03/28 10:56:57;;;;;;;9.25;5.90;;;;;;;23.39;25.08;100663.50;5037322;28;20028;-51
2021/03/28 10:59:43;;;;;;;9.68;6.15;;;;;;;23.62;25.15;100662.19;5052871;28;20029;-49
2021/03/28 11:02:45;;;;;;;11.18;6.38;;;;;;;23.33;24.84;100655.63;5052935;28;20484;-50
2021/03/28 11:05:29;;;;;;;9.73;6.68;;;;;;;23.43;24.41;100648.31;5053040;28;20106;-50
2021/03/28 11:08:18;;;;;;;9.43;5.65;;;;;;;23.92;24.11;100651.72;5031491;28;20234;-48
2021/03/28 11:10:46;;;;;;;9.70;5.78;;;;;;;23.89;24.24;100644.06;5050622;28;20509;-48
2021/03/28 11:13:57;;;;;;;11.20;5.93;;;;;;;23.90;23.28;100659.31;5052227;28;20020;-47
2021/03/28 11:16:34;;;;;;;7.38;5.40;;;;;;;23.50;23.80;100644.53;5012740;28;20033;-48
2021/03/28 11:19:37;;;;;;;7.63;5.18;;;;;;;23.65;23.01;100641.84;5053000;28;20574;-48
2021/03/28 11:22:25;;;;;;;10.52;5.05;;;;;;;23.27;23.64;100630.34;5048200;28;20018;-49
2021/03/28 11:25:16;;;;;;;11.68;7.82;;;;;;;23.72;23.82;100631.53;5052420;28;20052;-48
2021/03/28 11:27:54;;;;;;;8.77;5.40;;;;;;;23.89;23.36;100638.66;5051278;28;20021;-49
2021/03/28 11:30:41;;;;;;;8.80;5.63;;;;;;;23.81;23.03;100640.81;5036071;28;20032;-52
2021/03/28 11:33:27;;;;;;;7.60;4.85;;;;;;;23.68;22.97;100640.50;5052450;28;20032;-50
2021/03/28 11:35:59;;;;;;;7.15;4.97;;;;;;;23.91;22.86;100631.88;5052472;28;20031;-50
2021/03/28 11:39:20;;;;;;;6.22;4.95;;;;;;;24.02;23.07;100627.22;5036774;28;20040;-48
2021/03/28 11:41:51;;;;;;;8.27;5.03;;;;;;;23.86;23.37;100628.34;4999166;28;20493;-49
2021/03/28 11:44:40;;;;;;;7.43;5.32;;;;;;;24.11;23.70;100620.16;5034680;28;20017;-49
2021/03/28 11:47:14;;;;;;;8.25;5.32;;;;;;;24.40;23.68;100622.31;5031867;28;20036;-51
2021/03/28 11:50:00;;;;;;;9.88;5.63;;;;;;;25.18;22.37;100623.72;5052141;28;20401;-51
2021/03/28 11:52:31;;;;;;;10.63;4.90;;;;;;;24.47;22.96;100627.50;5035607;28;20083;-52
2021/03/28 11:55:09;;;;;;;10.05;5.30;;;;;;;24.55;22.74;100611.44;5030804;28;20036;-50
2021/03/28 11:57:35;;;;;;;9.32;5.18;;;;;;;24.43;23.40;100620.94;5025027;28;20025;-50
2021/03/28 12:00:19;;;;;;;6.75;5.13;;;;;;;24.62;22.62;100623.94;5050809;28;20039;-48
2021/03/28 12:02:44;;;;;;;7.50;5.10;;;;;;;23.95;23.70;100608.50;5052015;28;20083;-49
2021/03/28 12:05:10;;;;;;;10.10;5.97;;;;;;;24.32;23.01;100612.81;5048913;28;20033;-38
2021/03/28 12:07:40;;;;;;;14.48;5.45;;;;;;;24.24;22.76;100617.97;5047906;28;20063;-39
2021/03/28 12:10:06;;;;;;;9.82;5.03;;;;;;;24.10;23.02;100613.09;5033437;28;20051;-39
2021/03/28 12:12:34;;;;;;;10.40;5.63;;;;;;;23.88;23.39;100620.72;5051641;28;20025;-50
2021/03/28 12:15:50;;;;;;;11.23;5.22;;;;;;;23.73;23.80;100608.72;5051824;28;20025;-50
2021/03/28 12:18:26;;;;;;;11.10;5.60;;;;;;;23.59;23.96;100611.16;4990226;28;20068;-50
2021/03/28 12:21:04;;;;;;;9.45;5.28;;;;;;;23.29;24.33;100614.59;5049410;28;20048;-52
2021/03/28 12:23:47;;;;;;;10.65;5.47;;;;;;;23.16;24.02;100580.63;5051424;28;20028;-51
2021/03/28 12:26:25;;;;;;;8.05;5.13;;;;;;;23.43;24.62;100615.72;5051673;28;20032;-51
2021/03/28 12:28:54;;;;;;;7.15;5.43;;;;;;;23.56;23.62;100600.00;5049751;28;20357;-49
2021/03/28 12:31:38;;;;;;;10.50;5.00;;;;;;;23.22;24.16;100609.41;5050224;28;20047;-51